Time;durP1;ratioP1;P1;durP2;ratioP2;P2;SDS_P1;SDS_P2;PMS_P1;PMS_P2;Temp;Humidity;BMP_temperature;BMP_pressure;BME280_temperature;BME280_humidity;BME280_pressure;Samples;Min_cycle;Max_cycle;Signal;HPM_P1;HPM_P2
2022/12/14 00:01:07;;;;;;;12.70;6.20;;;;;;;1.07;69.32;99748.91;3143608;28;20064;-69
2022/12/14 00:02:39;;;;;;;12.57;6.43;;;;;;;1.09;69.27;99765.97;3144146;28;20056;-69
2022/12/14 00:04:10;;;;;;;10.25;5.80;;;;;;;1.02;69.44;99754.06;3144451;28;20139;-70
2022/12/14 00:05:43;;;;;;;10.93;6.10;;;;;;;1.01;69.27;99754.94;3138228;28;20067;-69
2022/12/14 00:07:15;;;;;;;10.23;5.60;;;;;;;1.01;69.30;99766.91;3132935;28;20069;-70
2022/12/14 00:08:49;;;;;;;14.55;6.55;;;;;;;0.42;69.30;99671.59;3143992;28;20052;-70
2022/12/14 00:10:21;;;;;;;12.75;6.75;;;;;;;0.95;69.48;99759.22;3144286;28;20089;-70
2022/12/14 00:11:53;;;;;;;14.32;6.78;;;;;;;0.70;69.45;99720.94;3143700;28;20056;-70
2022/12/14 00:13:25;;;;;;;15.10;6.18;;;;;;;0.90;69.44;99761.84;3143899;28;20051;-70
2022/12/14 00:14:57;;;;;;;11.80;6.28;;;;;;;0.93;69.62;99766.94;3143831;28;20098;-70
2022/12/14 00:16:30;;;;;;;13.70;6.45;;;;;;;0.95;69.54;99759.22;3144249;28;20094;-69
2022/12/14 00:18:03;;;;;;;15.10;7.13;;;;;;;0.94;69.49;99753.25;3143449;28;20512;-69
2022/12/14 00:19:35;;;;;;;14.13;6.05;;;;;;;0.95;69.39;99757.53;3143809;28;20044;-69
2022/12/14 00:21:12;;;;;;;17.15;6.68;;;;;;;1.03;69.33;99765.16;3143777;28;20059;-69
2022/12/14 00:22:43;;;;;;;12.07;6.35;;;;;;;1.02;69.10;99758.34;3144124;28;20125;-70
2022/12/14 00:24:14;;;;;;;14.50;6.53;;;;;;;1.02;68.98;99753.22;3131746;28;20569;-69
2022/12/14 00:25:45;;;;;;;12.60;6.38;;;;;;;1.03;68.95;99754.91;3142138;28;20053;-68
2022/12/14 00:27:17;;;;;;;11.68;6.32;;;;;;;1.09;68.89;99760.81;3143948;28;20574;-70
2022/12/14 00:28:51;;;;;;;13.18;5.93;;;;;;;0.99;68.75;99748.94;3144742;28;20121;-69
2022/12/14 00:30:22;;;;;;;11.45;5.90;;;;;;;1.06;68.60;99755.72;3146018;28;20044;-69
2022/12/14 00:31:55;;;;;;;14.43;6.38;;;;;;;1.04;68.70;99762.59;3142026;28;20139;-68
2022/12/14 00:33:27;;;;;;;10.95;5.75;;;;;;;1.04;68.56;99754.06;3133799;28;20533;-69
2022/12/14 00:35:00;;;;;;;12.20;6.13;;;;;;;1.03;68.37;99757.47;3143494;28;20044;-70
2022/12/14 00:36:36;;;;;;;13.48;6.55;;;;;;;1.00;68.42;99749.78;3146233;28;20132;-70
2022/12/14 00:38:08;;;;;;;10.65;5.65;;;;;;;1.02;68.40;99754.06;3146174;28;20041;-69
2022/12/14 00:39:40;;;;;;;10.15;5.70;;;;;;;1.01;68.28;99756.66;3140602;28;20049;-68
2022/12/14 00:41:12;;;;;;;14.30;6.38;;;;;;;0.97;68.38;99742.97;3132835;28;20506;-68
2022/12/14 00:42:44;;;;;;;11.43;6.10;;;;;;;1.04;68.41;99749.78;3133190;28;20437;-67
2022/12/14 00:44:16;;;;;;;14.95;6.93;;;;;;;0.99;68.12;99731.00;3133227;28;20482;-68
2022/12/14 00:45:48;;;;;;;14.48;7.03;;;;;;;1.08;68.26;99740.34;3141777;28;20064;-69
2022/12/14 00:47:20;;;;;;;19.50;6.72;;;;;;;0.88;68.42;99707.16;3138548;28;20082;-70
2022/12/14 00:48:51;;;;;;;15.50;6.82;;;;;;;1.12;68.51;99753.16;3133327;28;20052;-70
2022/12/14 00:50:23;;;;;;;12.98;6.40;;;;;;;1.11;68.34;99750.56;3133184;28;20045;-70
2022/12/14 00:51:57;;;;;;;15.73;6.88;;;;;;;1.10;68.44;99754.00;3133754;28;20049;-68
2022/12/14 00:53:29;;;;;;;15.68;6.80;;;;;;;1.09;68.45;99754.84;3143403;28;20052;-68
2022/12/14 00:55:01;;;;;;;18.25;7.20;;;;;;;1.08;68.44;99759.13;3137345;28;20076;-69
2022/12/14 00:56:34;;;;;;;13.98;7.18;;;;;;;1.09;68.57;99755.69;3133787;28;20523;-68
2022/12/14 00:58:05;;;;;;;17.25;7.75;;;;;;;1.07;68.62;99754.03;3133160;28;20049;-69
2022/12/14 00:59:37;;;;;;;12.77;6.65;;;;;;;1.09;68.73;99759.97;3140991;28;20045;-68
2022/12/14 01:01:12;;;;;;;15.50;7.30;;;;;;;1.09;68.81;99754.84;3145495;28;20575;-69
2022/12/14 01:02:44;;;;;;;15.50;7.10;;;;;;;1.11;68.96;99759.13;3145511;28;20139;-68
2022/12/14 01:04:18;;;;;;;16.23;7.40;;;;;;;1.07;69.07;99742.06;3145551;28;20109;-70
2022/12/14 01:05:49;;;;;;;20.48;8.38;;;;;;;1.12;69.19;99759.97;3146288;28;20052;-69
2022/12/14 01:07:23;;;;;;;13.48;7.32;;;;;;;1.15;69.16;99759.94;3146212;28;20063;-69
2022/12/14 01:08:54;;;;;;;14.40;7.43;;;;;;;0.82;69.21;99696.94;3146209;28;20082;-70
2022/12/14 01:10:26;;;;;;;14.10;7.20;;;;;;;1.17;69.16;99753.09;3140603;28;20103;-70
2022/12/14 01:11:57;;;;;;;12.77;6.90;;;;;;;1.11;69.15;99750.56;3136034;28;20491;-75
2022/12/14 01:13:29;;;;;;;13.45;7.50;;;;;;;1.13;69.17;99751.41;3142344;28;20064;-70
2022/12/14 01:15:01;;;;;;;14.07;7.13;;;;;;;1.13;69.14;99757.41;3142074;28;20049;-69
2022/12/14 01:16:33;;;;;;;12.80;7.07;;;;;;;1.00;69.24;99735.25;3138256;28;20717;-68
2022/12/14 01:18:06;;;;;;;12.23;6.53;;;;;;;1.09;69.08;99755.69;3145330;28;20102;-70
2022/12/14 01:19:48;;;;;;;;;;;;;;;;;;;;;
2022/12/14 01:21:22;;;;;;;15.32;6.78;;;;;;;1.03;69.05;99755.75;3143519;28;20590;-70
2022/12/14 01:22:57;;;;;;;12.10;6.22;;;;;;;0.50;68.94;99679.22;3145433;28;20505;-76
2022/12/14 01:24:29;;;;;;;15.00;6.65;;;;;;;0.91;68.88;99743.00;3140004;28;20541;-72
2022/12/14 01:26:00;;;;;;;12.32;6.60;;;;;;;0.91;68.91;99740.44;3133736;28;20053;-71
2022/12/14 01:27:32;;;;;;;14.73;7.20;;;;;;;0.95;68.73;99748.97;3139962;28;20045;-70
2022/12/14 01:29:05;;;;;;;12.30;6.07;;;;;;;0.33;68.58;99654.56;3136710;28;20467;-69
2022/12/14 01:30:39;;;;;;;14.35;7.03;;;;;;;0.90;68.80;99741.31;3142184;28;20048;-70
2022/12/14 01:32:11;;;;;;;14.10;6.32;;;;;;;0.94;68.77;99739.59;3145664;28;20052;-71
2022/12/14 01:33:43;;;;;;;13.32;6.13;;;;;;;0.26;68.70;99621.31;3145479;28;20076;-70
2022/12/14 01:35:16;;;;;;;12.00;6.18;;;;;;;1.06;68.54;99748.03;3136190;28;20533;-70
2022/12/14 01:36:46;;;;;;;12.13;6.35;;;;;;;1.06;68.45;99745.47;3134589;28;20053;-71
2022/12/14 01:38:20;;;;;;;16.38;7.05;;;;;;;0.91;68.35;99727.63;3145480;28;20153;-71
2022/12/14 01:39:52;;;;;;;13.85;6.72;;;;;;;1.10;68.33;99756.56;3147541;28;20054;-71
2022/12/14 01:41:25;;;;;;;12.65;5.43;;;;;;;0.53;68.26;99667.22;3145722;28;20053;-69
2022/12/14 01:42:57;;;;;;;15.10;6.45;;;;;;;1.14;68.05;99761.66;3145418;28;20311;-70
2022/12/14 01:44:56;;;;;;;11.48;6.20;;;;;;;1.17;67.71;99755.66;3144758;28;20110;-69
2022/12/14 01:46:34;;;;;;;12.18;6.15;;;;;;;1.15;67.89;99762.50;3143702;28;20075;-71
2022/12/14 01:48:12;;;;;;;11.88;5.90;;;;;;;1.14;67.36;99761.66;3145673;28;20048;-72
2022/12/14 01:49:48;;;;;;;15.15;7.30;;;;;;;1.13;67.15;99764.25;3145222;28;20121;-68
2022/12/14 01:51:20;;;;;;;11.23;5.97;;;;;;;1.10;67.14;99765.13;3141686;28;20158;-69
2022/12/14 01:52:55;;;;;;;13.48;6.00;;;;;;;1.13;67.41;99769.38;3134339;28;20081;-70
2022/12/14 01:54:32;;;;;;;12.52;5.97;;;;;;;1.17;67.54;99763.34;3149627;28;20044;-71
2022/12/14 01:56:05;;;;;;;15.27;7.00;;;;;;;1.20;67.64;99768.44;3144953;28;20056;-75
2022/12/14 01:57:42;;;;;;;13.48;6.72;;;;;;;1.25;67.49;99765.88;3142159;28;20056;-73
2022/12/14 01:59:18;;;;;;;13.50;6.60;;;;;;;0.54;67.35;99647.59;3137294;28;20110;-75
2022/12/14 02:00:54;;;;;;;12.98;6.70;;;;;;;1.32;67.38;99777.78;3139946;28;20057;-72
2022/12/14 02:02:28;;;;;;;13.73;6.55;;;;;;;1.36;67.43;99769.16;3140003;28;20052;-71
2022/12/14 02:04:03;;;;;;;13.48;5.90;;;;;;;1.40;67.43;99776.00;3139324;28;20048;-72
2022/12/14 02:05:39;;;;;;;14.75;6.45;;;;;;;1.23;66.99;99727.38;3139853;28;20056;-72
2022/12/14 02:07:14;;;;;;;13.82;6.78;;;;;;;1.46;66.92;99768.25;3139859;28;20049;-72
2022/12/14 02:08:50;;;;;;;12.80;6.05;;;;;;;1.47;66.72;99771.66;3139944;28;20224;-72
2022/12/14 02:10:27;;;;;;;11.77;6.13;;;;;;;1.45;66.62;99768.25;3140208;28;20048;-72
2022/12/14 02:12:06;;;;;;;13.35;5.70;;;;;;;1.36;66.44;99767.47;3139564;28;20125;-72
2022/12/14 02:13:40;;;;;;;13.27;6.53;;;;;;;1.44;66.41;99769.13;3139935;28;20102;-72
2022/12/14 02:15:14;;;;;;;12.25;6.10;;;;;;;1.27;66.06;99739.34;3139865;28;20499;-71
2022/12/14 02:16:46;;;;;;;13.10;6.55;;;;;;;1.31;66.05;99746.13;3139619;28;20417;-72
2022/12/14 02:18:21;;;;;;;17.00;6.55;;;;;;;1.36;65.97;99758.91;3131842;28;20139;-71
2022/12/14 02:19:54;;;;;;;14.30;5.90;;;;;;;1.27;65.98;99759.88;3139881;28;20521;-71
2022/12/14 02:21:43;;;;;;;15.68;6.72;;;;;;;1.34;66.06;99770.91;3139866;28;20543;-70
2022/12/14 02:23:56;;;;;;;13.55;6.55;;;;;;;1.31;66.00;99776.06;3139533;28;20489;-74
2022/12/14 02:25:53;;;;;;;15.73;7.13;;;;;;;1.27;66.13;99782.97;3101198;28;20644;-71
2022/12/14 02:27:41;;;;;;;14.63;6.85;;;;;;;1.28;66.11;99773.53;3111641;28;20132;-72
2022/12/14 02:29:31;;;;;;;14.20;6.82;;;;;;;0.25;65.96;99599.97;3139412;28;20224;-70
2022/12/14 02:31:14;;;;;;;13.23;6.05;;;;;;;1.25;65.87;99776.13;3139405;28;20825;-72
2022/12/14 02:33:17;;;;;;;12.77;6.57;;;;;;;1.16;66.06;99768.50;3139414;28;20083;-69
2022/12/14 02:34:58;;;;;;;12.73;6.70;;;;;;;1.19;66.08;99771.03;3139031;28;20460;-69
2022/12/14 02:36:36;;;;;;;12.32;6.07;;;;;;;1.14;65.96;99768.50;3139486;28;20051;-69
2022/12/14 02:38:18;;;;;;;12.60;5.65;;;;;;;1.11;66.20;99765.97;3136678;28;20235;-70
2022/12/14 02:40:01;;;;;;;11.07;5.88;;;;;;;1.17;66.06;99773.59;3139115;28;20071;-71
2022/12/14 02:41:41;;;;;;;15.43;6.75;;;;;;;1.10;66.23;99765.13;3138902;28;20112;-70
2022/12/14 02:43:19;;;;;;;12.48;6.15;;;;;;;1.18;66.39;99771.88;3136314;28;20566;-70
2022/12/14 02:45:02;;;;;;;12.95;6.07;;;;;;;1.19;66.19;99771.91;3132153;28;20048;-71
2022/12/14 02:46:42;;;;;;;12.75;6.13;;;;;;;1.08;65.93;99761.69;3134483;28;20063;-69
2022/12/14 02:48:18;;;;;;;13.85;6.60;;;;;;;1.16;66.11;99776.19;3134457;28;20448;-69
2022/12/14 02:50:01;;;;;;;13.48;6.45;;;;;;;1.16;66.21;99771.06;3139048;28;20526;-70
2022/12/14 02:51:47;;;;;;;11.85;6.70;;;;;;;1.14;66.22;99764.22;3138970;28;20116;-73
2022/12/14 02:53:24;;;;;;;13.40;5.85;;;;;;;1.07;66.42;99757.44;3139288;28;20052;-72
2022/12/14 02:55:02;;;;;;;11.52;5.80;;;;;;;1.13;66.23;99770.22;3135258;28;20100;-71
2022/12/14 02:56:41;;;;;;;13.25;5.90;;;;;;;1.08;66.33;99764.25;3132230;28;20052;-73
2022/12/14 02:58:19;;;;;;;13.00;6.53;;;;;;;1.11;66.22;99774.50;3138835;28;20395;-73
2022/12/14 02:59:56;;;;;;;13.52;5.82;;;;;;;0.76;66.32;99712.38;3138420;28;20359;-72
2022/12/14 03:01:29;;;;;;;11.63;5.80;;;;;;;1.13;66.47;99771.94;3138516;28;20052;-74
2022/12/14 03:03:03;;;;;;;13.43;6.43;;;;;;;1.15;66.28;99767.63;3138141;28;20049;-74
2022/12/14 03:04:44;;;;;;;12.20;5.60;;;;;;;1.17;66.13;99772.75;3138733;28;20664;-75
2022/12/14 03:06:24;;;;;;;13.30;6.35;;;;;;;1.16;66.20;99774.47;3134475;28;20048;-75
2022/12/14 03:07:59;;;;;;;15.18;6.93;;;;;;;1.12;65.89;99765.09;3138060;28;20071;-73
2022/12/14 03:09:32;;;;;;;12.02;6.57;;;;;;;1.10;65.99;99766.84;3138351;28;20053;-73
2022/12/14 03:11:06;;;;;;;14.50;6.88;;;;;;;1.10;66.12;99767.69;3137359;28;20044;-73
2022/12/14 03:12:42;;;;;;;10.85;5.70;;;;;;;0.91;66.35;99756.69;3137631;28;20052;-73
2022/12/14 03:14:21;;;;;;;14.77;7.10;;;;;;;1.03;66.21;99758.31;3137956;28;20583;-74
2022/12/14 03:15:57;;;;;;;13.25;6.32;;;;;;;0.50;66.17;99669.81;3138077;28;20052;-73
2022/12/14 03:17:33;;;;;;;12.98;6.63;;;;;;;1.04;66.55;99762.59;3125979;28;20080;-74
2022/12/14 03:19:12;;;;;;;18.50;6.75;;;;;;;1.03;66.30;99757.47;3137434;28;20144;-75
2022/12/14 03:20:48;;;;;;;13.50;6.30;;;;;;;0.97;66.26;99744.69;3137705;28;20484;-76
2022/12/14 03:22:25;;;;;;;15.02;6.60;;;;;;;0.88;66.30;99735.34;3137866;28;20111;-77
2022/12/14 03:24:00;;;;;;;13.57;6.93;;;;;;;0.98;66.37;99747.25;3138014;28;20051;-76
2022/12/14 03:25:39;;;;;;;13.00;6.30;;;;;;;0.98;66.45;99752.38;3138140;28;20505;-71
2022/12/14 03:27:14;;;;;;;14.70;6.28;;;;;;;0.98;66.70;99752.38;3137974;28;20755;-72
2022/12/14 03:28:51;;;;;;;13.43;6.70;;;;;;;1.02;66.63;99756.63;3135795;28;20064;-73
2022/12/14 03:30:24;;;;;;;12.85;6.30;;;;;;;1.03;66.67;99754.91;3138331;28;20060;-73
2022/12/14 03:32:00;;;;;;;11.85;6.22;;;;;;;0.95;66.62;99742.16;3136063;28;20052;-71
2022/12/14 03:33:34;;;;;;;13.45;6.35;;;;;;;0.61;66.56;99688.53;3138971;28;20426;-73
2022/12/14 03:35:13;;;;;;;14.20;6.88;;;;;;;1.00;66.60;99742.09;3138673;28;20056;-73
2022/12/14 03:36:50;;;;;;;12.32;6.25;;;;;;;1.05;66.52;99764.28;3139491;28;20445;-74
2022/12/14 03:38:31;;;;;;;16.52;7.18;;;;;;;1.07;66.64;99764.28;3139560;28;20109;-73
2022/12/14 03:40:03;;;;;;;15.05;7.55;;;;;;;1.01;66.48;99756.66;3139188;28;20053;-73
2022/12/14 03:41:44;;;;;;;10.82;5.35;;;;;;;0.54;66.52;99693.72;3138899;28;20083;-72
2022/12/14 03:43:23;;;;;;;12.88;6.07;;;;;;;1.05;66.72;99774.53;3138195;28;20048;-73
2022/12/14 03:45:04;;;;;;;15.70;7.10;;;;;;;0.97;66.78;99760.91;3138652;28;20082;-74
2022/12/14 03:46:44;;;;;;;13.00;6.72;;;;;;;1.04;66.68;99772.00;3138385;28;20098;-75
2022/12/14 03:48:28;;;;;;;15.43;6.70;;;;;;;1.09;66.46;99778.78;3138571;28;20044;-76
2022/12/14 03:50:03;;;;;;;15.15;7.05;;;;;;;1.08;66.15;99771.97;3138235;28;20044;-73
2022/12/14 03:51:43;;;;;;;13.90;6.22;;;;;;;1.06;66.04;99767.69;3138550;28;20063;-73
2022/12/14 03:53:20;;;;;;;14.70;6.78;;;;;;;1.05;66.13;99764.28;3137850;28;20739;-74
2022/12/14 03:54:59;;;;;;;17.77;6.63;;;;;;;1.01;66.12;99757.50;3139630;28;20500;-74
2022/12/14 03:56:39;;;;;;;14.00;6.68;;;;;;;0.99;66.19;99753.22;3138700;28;20067;-74
2022/12/14 03:58:26;;;;;;;16.73;7.50;;;;;;;1.04;66.22;99764.31;3137070;28;20669;-73
2022/12/14 04:00:03;;;;;;;13.57;6.63;;;;;;;0.99;66.10;99763.50;3138405;28;20060;-71
2022/12/14 04:01:45;;;;;;;17.05;7.35;;;;;;;1.01;66.36;99764.34;3138135;28;20102;-73
2022/12/14 04:03:27;;;;;;;13.07;6.85;;;;;;;1.00;66.59;99767.75;3140459;28;20469;-71
2022/12/14 04:05:06;;;;;;;14.32;7.28;;;;;;;0.82;66.63;99733.66;3141085;28;20052;-73
2022/12/14 04:06:43;;;;;;;15.05;7.35;;;;;;;0.93;66.71;99750.72;3142415;28;20067;-69
2022/12/14 04:08:22;;;;;;;18.35;7.57;;;;;;;0.98;66.82;99756.66;3136382;28;20220;-68
2022/12/14 04:09:59;;;;;;;13.77;6.45;;;;;;;0.97;67.05;99757.50;3136121;28;20447;-70
2022/12/14 04:19:12;;;;;;;13.13;6.35;;;;;;;1.03;67.02;99742.91;3137687;28;20048;-69
2022/12/14 04:20:49;;;;;;;13.73;6.57;;;;;;;1.10;67.07;99748.88;3137646;28;20318;-69
2022/12/14 04:22:24;;;;;;;14.38;7.65;;;;;;;1.10;67.06;99743.75;3137090;28;20052;-69
2022/12/14 04:26:04;;;;;;;12.50;6.80;;;;;;;1.11;67.23;99748.84;3136185;28;20045;-69
2022/12/14 04:27:41;;;;;;;14.90;6.90;;;;;;;1.12;67.25;99758.28;3136416;28;20053;-69
2022/12/14 04:31:14;;;;;;;17.48;7.82;;;;;;;1.16;67.50;99755.69;3125094;28;20104;-70
2022/12/14 04:32:50;;;;;;;12.35;6.65;;;;;;;0.35;67.40;99611.00;3124032;28;20083;-70
2022/12/14 04:34:27;;;;;;;12.88;7.13;;;;;;;0.73;67.40;99677.34;3136625;28;20413;-70
2022/12/14 04:36:03;;;;;;;11.65;6.70;;;;;;;1.28;67.38;99755.59;3136158;28;20158;-70
2022/12/14 04:37:39;;;;;;;14.88;7.07;;;;;;;1.27;67.39;99761.56;3137556;28;20071;-69
2022/12/14 04:39:17;;;;;;;16.48;7.65;;;;;;;1.28;67.29;99745.31;3136875;28;20158;-69
2022/12/14 04:40:53;;;;;;;16.27;7.57;;;;;;;1.31;67.42;99743.56;3137189;28;20102;-69
2022/12/14 04:42:29;;;;;;;14.38;7.53;;;;;;;1.34;67.42;99740.13;3137656;28;20127;-70
2022/12/14 04:44:06;;;;;;;15.40;7.53;;;;;;;1.31;67.38;99729.91;3136502;28;20052;-69
2022/12/14 04:45:44;;;;;;;16.85;8.20;;;;;;;1.39;67.42;99734.94;3137160;28;20057;-69
2022/12/14 04:47:19;;;;;;;15.27;6.82;;;;;;;1.34;67.34;99720.47;3136645;28;20394;-70
2022/12/14 04:48:56;;;;;;;14.40;7.60;;;;;;;1.43;67.46;99742.63;3136616;28;20076;-71
2022/12/14 04:50:35;;;;;;;13.70;7.00;;;;;;;1.42;67.37;99740.91;3137246;28;20556;-70
2022/12/14 04:52:15;;;;;;;16.27;7.95;;;;;;;1.48;67.33;99748.56;3135670;28;20106;-72
2022/12/14 04:53:51;;;;;;;15.95;7.13;;;;;;;1.50;67.23;99748.53;3135895;28;20059;-70
2022/12/14 04:55:28;;;;;;;14.60;7.15;;;;;;;1.51;67.27;99751.09;3126068;28;20134;-70
2022/12/14 04:57:08;;;;;;;13.05;6.68;;;;;;;1.55;67.20;99763.03;3136321;28;20058;-68
2022/12/14 04:58:41;;;;;;;17.30;7.10;;;;;;;1.57;67.08;99768.16;3135552;28;20090;-69
2022/12/14 05:00:15;;;;;;;13.32;6.63;;;;;;;1.50;66.92;99749.38;3135525;28;20106;-68
2022/12/14 05:01:58;;;;;;;14.23;6.90;;;;;;;1.61;66.80;99769.81;3135853;28;20151;-68
2022/12/14 05:03:34;;;;;;;15.35;7.82;;;;;;;1.48;66.83;99734.84;3123249;28;20068;-70
2022/12/14 05:05:11;;;;;;;13.35;6.78;;;;;;;1.58;66.76;99750.16;3123626;28;20198;-71
2022/12/14 05:06:57;;;;;;;15.65;6.93;;;;;;;1.64;66.59;99767.22;3136135;28;20056;-71
2022/12/14 05:08:46;;;;;;;12.52;6.80;;;;;;;1.65;66.44;99768.06;3124568;28;20125;-74
2022/12/14 05:10:21;;;;;;;15.45;7.03;;;;;;;1.47;66.32;99741.72;3124797;28;20559;-71
2022/12/14 05:12:00;;;;;;;19.30;7.30;;;;;;;1.58;66.22;99759.59;3132967;28;20066;-71
2022/12/14 05:13:38;;;;;;;13.90;7.25;;;;;;;1.65;66.30;99775.78;3135919;28;20535;-70
2022/12/14 05:15:15;;;;;;;14.77;7.30;;;;;;;1.65;66.22;99771.50;3134957;28;20477;-70
2022/12/14 05:16:48;;;;;;;17.95;6.97;;;;;;;1.49;66.31;99742.56;3136431;28;20079;-70
2022/12/14 05:18:21;;;;;;;16.75;7.00;;;;;;;1.67;66.09;99768.91;3137461;28;20052;-70
2022/12/14 05:19:54;;;;;;;15.93;7.25;;;;;;;1.68;66.13;99771.47;3137254;28;20190;-70
2022/12/14 05:23:17;;;;;;;20.05;8.85;;;;;;;1.59;66.20;99751.84;3136310;28;20044;-69
2022/12/14 05:24:49;;;;;;;19.63;8.60;;;;;;;1.71;66.08;99768.00;3136042;28;20154;-70
2022/12/14 05:26:21;;;;;;;14.77;7.78;;;;;;;1.72;66.07;99772.31;3135808;28;20109;-70
2022/12/14 05:27:53;;;;;;;18.90;8.40;;;;;;;1.74;66.13;99775.69;3135289;28;20374;-69
2022/12/14 05:29:25;;;;;;;15.13;7.57;;;;;;;1.75;66.09;99772.28;3127271;28;20056;-70
2022/12/14 05:30:57;;;;;;;15.90;7.38;;;;;;;1.76;66.10;99774.81;3135481;28;20049;-70
2022/12/14 05:32:29;;;;;;;15.93;7.93;;;;;;;1.76;66.13;99774.81;3136375;28;20048;-69
2022/12/14 05:34:01;;;;;;;18.00;8.48;;;;;;;1.77;66.02;99771.38;3136101;28;20059;-70
2022/12/14 05:35:33;;;;;;;17.48;8.73;;;;;;;1.78;66.01;99773.09;3135747;28;20091;-70
2022/12/14 05:37:05;;;;;;;15.73;8.13;;;;;;;1.78;66.00;99769.66;3136199;28;20454;-70
2022/12/14 05:38:40;;;;;;;23.75;10.63;;;;;;;1.77;65.90;99767.94;3136482;28;21134;-68
2022/12/14 05:40:12;;;;;;;25.08;9.35;;;;;;;1.76;66.04;99768.81;3136742;28;20044;-68
2022/12/14 05:41:45;;;;;;;18.90;9.38;;;;;;;1.77;66.10;99778.22;3136674;28;20584;-69
2022/12/14 05:43:17;;;;;;;16.63;8.73;;;;;;;1.61;66.05;99751.00;3136526;28;20139;-69
2022/12/14 05:44:49;;;;;;;18.27;8.43;;;;;;;1.78;66.15;99785.94;3135302;28;20083;-68
2022/12/14 05:46:21;;;;;;;18.27;8.57;;;;;;;1.79;66.24;99786.78;3134930;28;20079;-68
2022/12/14 05:47:53;;;;;;;25.77;8.32;;;;;;;1.66;66.21;99759.53;3135300;28;20350;-68
2022/12/14 05:49:25;;;;;;;25.10;8.73;;;;;;;1.78;66.35;99791.06;3135227;28;20049;-69
2022/12/14 05:51:05;;;;;;;18.70;8.85;;;;;;;1.76;66.40;99784.22;3135384;28;20612;-69
2022/12/14 05:52:37;;;;;;;16.73;8.68;;;;;;;1.81;66.61;99797.88;3135213;28;20048;-70
2022/12/14 05:54:10;;;;;;;16.70;8.15;;;;;;;1.83;66.62;99798.69;3136013;28;20143;-69
2022/12/14 05:55:46;;;;;;;;;;;;;;;1.78;66.70;99806.47;3136699;28;20080;-67
2022/12/14 05:57:18;;;;;;;21.27;8.70;;;;;;;1.78;66.89;99803.91;3136213;28;19924;-68
2022/12/14 05:58:51;;;;;;;18.92;9.23;;;;;;;1.82;66.82;99810.69;3133260;28;20453;-69
2022/12/14 06:00:23;;;;;;;20.90;9.48;;;;;;;1.84;66.89;99808.13;3134131;28;20110;-73
2022/12/14 06:01:55;;;;;;;25.08;9.38;;;;;;;1.82;66.94;99804.72;3134468;28;20056;-69
2022/12/14 06:03:27;;;;;;;21.40;10.55;;;;;;;1.87;66.98;99802.13;3135481;28;20049;-69
2022/12/14 06:04:58;;;;;;;23.23;10.65;;;;;;;1.88;66.71;99799.50;3134135;28;20540;-69
2022/12/14 06:06:33;;;;;;;23.50;10.65;;;;;;;1.89;66.90;99798.63;3134133;28;20594;-73
2022/12/14 06:08:06;;;;;;;22.58;11.25;;;;;;;1.52;67.00;99739.97;3132700;28;20989;-74
2022/12/14 06:09:39;;;;;;;25.38;11.02;;;;;;;1.90;66.69;99800.34;3133470;28;20067;-74
2022/12/14 06:11:13;;;;;;;22.55;11.32;;;;;;;1.91;66.91;99798.63;3131594;28;20107;-75
2022/12/14 06:12:45;;;;;;;22.05;10.85;;;;;;;1.91;67.03;99799.47;3132387;28;20631;-75
2022/12/14 06:14:18;;;;;;;22.50;10.05;;;;;;;1.86;67.01;99792.69;3132157;28;20110;-71
2022/12/14 06:15:50;;;;;;;23.63;11.27;;;;;;;1.94;66.91;99807.16;3137422;28;20067;-70
2022/12/14 06:17:22;;;;;;;21.92;9.77;;;;;;;1.36;67.03;99715.28;3143033;28;20181;-74
2022/12/14 06:18:55;;;;;;;21.10;10.05;;;;;;;1.88;67.01;99791.81;3144128;28;20053;-73
2022/12/14 06:20:27;;;;;;;19.77;10.73;;;;;;;1.98;66.86;99807.97;3143701;28;20044;-73
2022/12/14 06:22:00;;;;;;;24.48;10.80;;;;;;;1.95;66.92;99805.44;3143695;28;20048;-73
2022/12/14 06:23:30;;;;;;;22.50;11.57;;;;;;;1.91;66.74;99801.22;3144130;28;20155;-72
2022/12/14 06:25:04;;;;;;;21.48;10.88;;;;;;;2.03;66.75;99819.06;3144012;28;20048;-73
2022/12/14 06:26:39;;;;;;;22.52;10.90;;;;;;;2.04;66.89;99810.47;3142209;28;20052;-75
2022/12/14 06:28:11;;;;;;;25.95;10.50;;;;;;;2.03;66.84;99809.63;3144542;28;20096;-69
2022/12/14 06:29:43;;;;;;;18.70;9.73;;;;;;;2.05;66.71;99813.03;3144521;28;20060;-69
2022/12/14 06:31:16;;;;;;;17.02;9.23;;;;;;;1.69;66.57;99750.06;3143924;28;20049;-70
2022/12/14 06:32:48;;;;;;;;;;;;;;;1.99;66.60;99814.84;3143096;28;20048;-69
2022/12/14 06:34:20;;;;;;;18.02;8.95;;;;;;;1.99;66.81;99809.69;3144813;28;19921;-67
2022/12/14 06:35:52;;;;;;;19.77;9.45;;;;;;;2.02;66.68;99818.22;3143985;28;20064;-66
2022/12/14 06:37:24;;;;;;;20.98;8.52;;;;;;;2.00;66.77;99814.78;3143637;28;20053;-67
2022/12/14 06:38:57;;;;;;;43.38;19.02;;;;;;;2.09;66.70;99819.00;3143582;28;20166;-68
2022/12/14 06:40:30;;;;;;;;;;;;;;;2.07;66.74;99822.44;3145162;28;20052;-70
2022/12/14 06:42:02;;;;;;;29.23;12.25;;;;;;;2.10;66.73;99820.72;3144460;28;19974;-69
2022/12/14 06:43:34;;;;;;;18.08;9.50;;;;;;;2.16;66.66;99825.78;3144914;28;20048;-69
2022/12/14 06:45:07;;;;;;;20.63;9.07;;;;;;;2.21;66.72;99821.44;3144169;28;20528;-73
2022/12/14 06:46:39;;;;;;;19.60;9.98;;;;;;;2.24;66.63;99828.25;3144746;28;20490;-71
2022/12/14 06:48:11;;;;;;;19.17;9.23;;;;;;;2.33;66.57;99835.00;3145043;28;20078;-72
2022/12/14 06:49:43;;;;;;;18.08;9.25;;;;;;;1.84;66.22;99753.34;3144222;28;20052;-77
2022/12/14 06:51:14;;;;;;;21.00;9.02;;;;;;;2.39;66.39;99827.22;3144850;28;20051;-71
2022/12/14 06:52:48;;;;;;;19.70;9.82;;;;;;;2.49;65.99;99834.84;3144557;28;20053;-75
2022/12/14 06:54:21;;;;;;;18.10;8.48;;;;;;;2.39;65.62;99817.78;3148115;28;20044;-73
2022/12/14 06:55:55;;;;;;;20.08;8.48;;;;;;;2.49;65.36;99829.69;3149916;28;20048;-67
2022/12/14 06:57:26;;;;;;;17.70;7.68;;;;;;;2.52;65.26;99830.53;3144698;28;20056;-74
2022/12/14 06:58:58;;;;;;;18.85;8.57;;;;;;;2.57;64.72;99846.72;3144205;28;20045;-72
2022/12/14 07:00:30;;;;;;;18.60;8.32;;;;;;;2.57;64.28;99842.44;3143459;28;20124;-71
2022/12/14 07:02:02;;;;;;;15.48;8.35;;;;;;;2.58;63.96;99841.59;3136293;28;20239;-74
2022/12/14 07:03:35;;;;;;;15.48;7.43;;;;;;;2.57;63.74;99841.59;3140957;28;20052;-71
2022/12/14 07:05:07;;;;;;;19.60;7.20;;;;;;;2.61;63.28;99840.69;3144626;28;20049;-70
2022/12/14 07:06:40;;;;;;;16.10;7.78;;;;;;;2.61;63.06;99833.00;3144567;28;20114;-70
2022/12/14 07:08:12;;;;;;;13.88;6.97;;;;;;;2.71;63.01;99829.41;3143830;28;20044;-70
2022/12/14 07:09:44;;;;;;;40.25;17.83;;;;;;;2.82;62.67;99832.72;3142182;28;20056;-71
2022/12/14 07:11:17;;;;;;;49.28;24.08;;;;;;;2.90;62.41;99833.47;3141640;28;20053;-68
2022/12/14 07:12:49;;;;;;;32.20;13.85;;;;;;;3.08;62.10;99840.06;3142355;28;20056;-72
2022/12/14 07:14:21;;;;;;;37.38;17.63;;;;;;;3.36;61.80;99840.50;3142300;28;20181;-69
2022/12/14 07:15:54;;;;;;;22.77;11.07;;;;;;;3.79;61.31;99859.59;3142239;28;20550;-69
2022/12/14 07:17:25;;;;;;;17.77;8.37;;;;;;;4.24;60.41;99852.78;3142376;28;20074;-69
2022/12/14 07:18:57;;;;;;;20.23;6.47;;;;;;;4.71;59.46;99848.44;3141698;28;20097;-68
2022/12/14 07:20:29;;;;;;;17.10;8.10;;;;;;;5.22;58.66;99848.19;3141090;28;20094;-68
2022/12/14 07:22:03;;;;;;;19.70;7.57;;;;;;;5.70;57.77;99847.91;3141653;28;20435;-69
2022/12/14 07:23:36;;;;;;;;;;;;;;;6.31;56.66;99839.53;3139165;28;20484;-68
2022/12/14 07:25:08;;;;;;;14.77;7.00;;;;;;;6.55;52.58;99825.06;3142693;28;19952;-72
2022/12/14 07:26:42;;;;;;;20.95;6.95;;;;;;;6.72;51.34;99804.72;3141517;28;20056;-67
2022/12/14 07:28:14;;;;;;;101.72;38.33;;;;;;;7.11;50.83;99827.72;3134444;28;20063;-66
2022/12/14 07:29:46;;;;;;;37.67;12.23;;;;;;;7.40;50.45;99826.81;3132245;28;20518;-67
2022/12/14 07:31:20;;;;;;;13.68;6.47;;;;;;;7.70;49.42;99829.31;3130917;28;20324;-67
2022/12/14 07:32:52;;;;;;;17.67;7.70;;;;;;;7.98;48.50;99816.25;3133017;28;20052;-67
2022/12/14 07:34:24;;;;;;;11.70;6.47;;;;;;;8.23;47.32;99805.88;3132765;28;21000;-66
2022/12/14 07:36:02;;;;;;;13.20;7.13;;;;;;;8.54;47.46;99815.19;3134068;28;20066;-69
2022/12/14 07:37:34;;;;;;;14.57;5.95;;;;;;;8.84;46.95;99816.66;3134088;28;20056;-72
2022/12/14 07:39:06;;;;;;;11.68;6.25;;;;;;;9.01;46.50;99825.56;3133472;28;20500;-69
2022/12/14 07:40:38;;;;;;;14.63;7.65;;;;;;;8.82;45.96;99831.44;3132742;28;20059;-67
2022/12/14 07:42:12;;;;;;;14.10;7.50;;;;;;;8.57;46.15;99825.47;3134661;28;20130;-67